Time,TemperatureF,DewpointF,PressureIn,WindDirection,WindDirectionDegrees,WindSpeedMPH,WindSpeedGustMPH,Humidity,HourlyPrecipIn,Conditions,Clouds,dailyrainin,SoftwareType,DateUTC
2013-09-09 02:22:00,51.0,42.0,30.11,NW,315,0.0,2.0,71,0.00,,,0.00,,2013-09-09 06:22:00,
2013-09-09 02:52:00,49.0,40.0,30.12,NW,315,0.0,2.0,72,0.00,,,0.00,,2013-09-09 06:52:00,
2013-09-09 03:22:00,49.0,41.0,30.12,WNW,292,0.0,1.0,73,0.00,,,0.00,,2013-09-09 07:22:00,
2013-09-09 03:52:00,48.0,40.0,30.12,ENE,68,1.0,2.0,74,0.00,,,0.00,,2013-09-09 07:52:00,
2013-09-09 04:12:00,48.0,40.0,30.13,WSW,248,0.0,1.0,75,0.00,,,0.00,,2013-09-09 08:12:00,
2013-09-09 04:22:00,47.0,40.0,30.13,NW,315,0.0,0.0,76,0.00,,,0.00,,2013-09-09 08:22:00,
2013-09-09 04:52:00,47.0,40.0,30.14,NW,315,0.0,1.0,76,0.00,,,0.00,,2013-09-09 08:52:00,
2013-09-09 05:22:00,47.0,40.0,30.15,WSW,248,0.0,1.0,77,0.00,,,0.00,,2013-09-09 09:22:00,
2013-09-09 05:54:00,46.0,40.0,30.15,NNW,338,0.0,1.0,78,0.00,,,0.00,,2013-09-09 09:54:00,
2013-09-09 06:23:00,46.0,40.0,30.17,WSW,248,1.0,1.0,78,0.00,,,0.00,,2013-09-09 10:23:00,
2013-09-09 06:53:00,46.0,40.0,30.16,West,270,0.0,0.0,79,0.00,,,0.00,,2013-09-09 10:53:00,
2013-09-09 07:22:00,46.0,40.0,30.18,East,90,0.0,0.0,79,0.00,,,0.00,,2013-09-09 11:22:00,
2013-09-09 07:52:00,46.0,40.0,30.21,East,90,0.0,1.0,79,0.00,,,0.00,,2013-09-09 11:52:00,
2013-09-09 08:12:00,46.0,40.0,30.19,East,90,0.0,0.0,80,0.00,,,0.00,,2013-09-09 12:12:00,
2013-09-09 08:22:00,47.0,41.0,30.19,SE,135,1.0,2.0,81,0.00,,,0.00,,2013-09-09 12:22:00,
2013-09-09 08:52:00,49.0,43.0,30.19,ESE,112,2.0,2.0,80,0.00,,,0.00,,2013-09-09 12:52:00,
2013-09-09 09:11:00,49.0,43.0,30.19,East,90,2.0,2.0,80,0.00,,,0.00,,2013-09-09 13:11:00,
2013-09-09 09:22:00,51.0,44.0,30.20,ENE,68,2.0,6.0,77,0.00,,,0.00,,2013-09-09 13:22:00,
2013-09-09 09:52:00,53.0,45.0,30.20,ESE,112,1.0,5.0,73,0.00,,,0.00,,2013-09-09 13:52:00,
2013-09-09 10:22:00,55.0,44.0,30.21,ESE,112,2.0,3.0,66,0.00,,,0.00,,2013-09-09 14:22:00,
2013-09-09 10:52:00,57.0,46.0,30.20,ESE,112,2.0,5.0,66,0.00,,,0.00,,2013-09-09 14:52:00,
2013-09-09 11:11:00,57.0,46.0,30.20,SE,135,2.0,5.0,66,0.00,,,0.00,,2013-09-09 15:11:00,
2013-09-09 11:22:00,58.0,46.0,30.19,ESE,112,2.0,5.0,64,0.00,,,0.00,,2013-09-09 15:22:00,
2013-09-09 11:53:00,60.0,48.0,30.20,South,180,2.0,5.0,64,0.00,,,0.00,,2013-09-09 15:53:00,
2013-09-09 12:13:00,61.0,49.0,30.19,WSW,248,3.0,7.0,64,0.00,,,0.00,,2013-09-09 16:13:00,
2013-09-09 12:25:00,62.0,50.0,30.18,South,180,2.0,7.0,64,0.00,,,0.00,,2013-09-09 16:25:00,
2013-09-09 12:54:00,64.0,51.0,30.18,South,180,2.0,6.0,62,0.00,,,0.00,,2013-09-09 16:54:00,
2013-09-09 13:23:00,65.0,51.0,30.17,SSE,158,3.0,6.0,61,0.00,,,0.00,,2013-09-09 17:23:00,
2013-09-09 13:53:00,68.0,52.0,30.17,WSW,248,7.0,10.0,57,0.00,,,0.00,,2013-09-09 17:53:00,
2013-09-09 14:13:00,69.0,52.0,30.16,SSE,158,3.0,9.0,55,0.00,,,0.00,,2013-09-09 18:13:00,
2013-09-09 14:22:00,71.0,54.0,30.16,NE,45,5.0,12.0,54,0.00,,,0.00,,2013-09-09 18:22:00,
2013-09-09 14:52:00,71.0,53.0,30.16,WSW,248,7.0,17.0,53,0.00,,,0.00,,2013-09-09 18:52:00,
2013-09-09 15:12:00,71.0,53.0,30.15,South,180,7.0,10.0,53,0.00,,,0.00,,2013-09-09 19:12:00,
2013-09-09 15:22:00,71.0,53.0,30.14,SW,225,5.0,14.0,53,0.00,,,0.00,,2013-09-09 19:22:00,
2013-09-09 15:52:00,71.0,53.0,30.14,South,180,3.0,7.0,53,0.00,,,0.00,,2013-09-09 19:52:00,
2013-09-09 16:12:00,71.0,53.0,30.13,WSW,248,6.0,9.0,53,0.00,,,0.00,,2013-09-09 20:12:00,
2013-09-09 16:22:00,71.0,53.0,30.16,SE,135,5.0,10.0,53,0.00,,,0.00,,2013-09-09 20:22:00,
2013-09-09 16:53:00,71.0,53.0,30.12,West,270,3.0,7.0,53,0.00,,,0.00,,2013-09-09 20:53:00,
2013-09-09 17:22:00,71.0,53.0,30.17,SSE,158,3.0,7.0,53,0.00,,,0.00,,2013-09-09 21:22:00,
2013-09-09 17:54:00,71.0,53.0,30.14,South,180,3.0,7.0,53,0.00,,,0.00,,2013-09-09 21:54:00,
2013-09-09 18:24:00,71.0,53.0,30.11,WNW,292,3.0,7.0,53,0.00,,,0.00,,2013-09-09 22:24:00,
2013-09-09 18:54:00,71.0,53.0,30.13,NNE,22,2.0,5.0,53,0.00,,,0.00,,2013-09-09 22:54:00,
2013-09-09 19:22:00,71.0,53.0,30.11,SW,225,1.0,3.0,53,0.00,,,0.00,,2013-09-09 23:22:00,
2013-09-09 19:52:00,71.0,53.0,30.11,NW,315,1.0,2.0,53,0.00,,,0.00,,2013-09-09 23:52:00,
2013-09-09 20:12:00,71.0,53.0,30.10,SSE,158,1.0,2.0,53,0.00,,,0.00,,2013-09-10 00:12:00,
2013-09-09 20:22:00,71.0,53.0,30.11,West,270,1.0,5.0,53,0.00,,,0.00,,2013-09-10 00:22:00,
2013-09-09 20:42:00,71.0,53.0,30.11,WSW,248,1.0,2.0,53,0.00,,,0.00,,2013-09-10 00:42:00,
2013-09-09 20:52:00,71.0,53.0,30.12,WSW,248,0.0,2.0,53,0.00,,,0.00,,2013-09-10 00:52:00,
2013-09-09 21:21:00,71.0,53.0,30.14,WSW,248,1.0,3.0,53,0.00,,,0.00,,2013-09-10 01:21:00,
2013-09-09 21:42:00,71.0,53.0,30.14,South,180,0.0,2.0,53,0.00,,,0.00,,2013-09-10 01:42:00,
2013-09-09 21:53:00,71.0,53.0,30.12,South,180,0.0,2.0,53,0.00,,,0.00,,2013-09-10 01:53:00,
2013-09-09 22:22:00,71.0,53.0,30.11,WNW,292,0.0,2.0,53,0.00,,,0.00,,2013-09-10 02:22:00,
2013-09-09 22:42:00,65.0,56.0,30.11,WNW,292,0.0,0.0,72,0.00,,,0.00,,2013-09-10 02:42:00,
2013-09-09 22:52:00,64.0,55.0,30.11,SE,135,0.0,0.0,73,0.00,,,0.00,,2013-09-10 02:52:00,
2013-09-09 23:12:00,64.0,56.0,30.11,SE,135,0.0,0.0,74,0.00,,,0.00,,2013-09-10 03:12:00,
2013-09-09 23:22:00,64.0,56.0,30.11,NW,315,0.0,0.0,75,0.00,,,0.00,,2013-09-10 03:22:00,
2013-09-09 23:55:00,63.0,56.0,30.11,South,180,0.0,1.0,78,0.00,,,0.00,,2013-09-10 03:55:00,